Time;durP1;ratioP1;P1;durP2;ratioP2;P2;SDS_P1;SDS_P2;PMS_P1;PMS_P2;Temp;Humidity;BMP_temperature;BMP_pressure;BME280_temperature;BME280_humidity;BME280_pressure;Samples;Min_cycle;Max_cycle;Signal;HPM_P1;HPM_P2
2023/12/11 00:01:55;;;;;;;12.50;2.60;;;33.50;74.60;;;;;;5028535;28;20034;-72
2023/12/11 00:04:22;;;;;;;13.57;2.38;;;33.70;74.50;;;;;;5033422;28;20032;-73
2023/12/11 00:06:50;;;;;;;16.45;2.33;;;33.80;72.70;;;;;;5030811;28;20509;-73
2023/12/11 00:09:17;;;;;;;9.43;2.15;;;33.90;74.00;;;;;;5035633;28;20060;-73
2023/12/11 00:11:45;;;;;;;7.82;1.88;;;34.00;74.60;;;;;;5040462;28;20106;-73
2023/12/11 00:14:12;;;;;;;13.30;3.28;;;33.90;71.80;;;;;;5028583;28;20036;-72
2023/12/11 00:16:40;;;;;;;10.85;2.78;;;34.00;74.00;;;;;;5032433;28;20103;-72
2023/12/11 00:19:07;;;;;;;12.93;2.78;;;34.10;70.90;;;;;;5033891;28;20021;-72
2023/12/11 00:21:35;;;;;;;9.52;2.30;;;34.00;72.20;;;;;;5039544;28;20529;-72
2023/12/11 00:24:03;;;;;;;10.07;2.80;;;34.00;71.30;;;;;;5035768;28;20025;-72
2023/12/11 00:26:30;;;;;;;16.85;2.72;;;34.30;68.20;;;;;;5033328;28;20029;-73
2023/12/11 00:28:58;;;;;;;16.27;2.83;;;33.70;71.30;;;;;;5038888;28;20052;-72
2023/12/11 00:31:25;;;;;;;10.65;2.10;;;33.80;71.70;;;;;;5039373;28;20082;-72
2023/12/11 00:34:02;;;;;;;14.32;2.20;;;34.20;72.70;;;;;;5037863;28;20021;-72
2023/12/11 00:36:28;;;;;;;;;;;34.60;72.40;;;;;;5033822;28;20029;-72
2023/12/11 00:38:56;;;;;;;16.75;3.05;;;34.90;71.10;;;;;;5036443;28;19905;-73
2023/12/11 00:41:23;;;;;;;8.77;1.80;;;35.00;71.50;;;;;;5032347;28;20086;-74
2023/12/11 00:43:50;;;;;;;10.20;2.40;;;35.20;69.50;;;;;;5032639;28;20070;-73
2023/12/11 00:46:22;;;;;;;9.43;2.65;;;35.30;71.10;;;;;;5034961;28;20013;-73
2023/12/11 00:48:50;;;;;;;7.93;1.95;;;35.60;68.60;;;;;;5040051;28;20051;-72
2023/12/11 00:51:21;;;;;;;13.57;2.58;;;35.70;66.50;;;;;;5032331;28;20110;-73
2023/12/11 00:53:49;;;;;;;11.85;2.35;;;35.80;68.50;;;;;;5030617;28;20691;-73
2023/12/11 00:56:17;;;;;;;12.27;2.70;;;35.60;67.10;;;;;;5036439;28;20052;-72
2023/12/11 00:58:44;;;;;;;8.13;2.25;;;35.90;67.30;;;;;;5030689;28;20391;-73
2023/12/11 01:01:11;;;;;;;11.65;2.40;;;36.20;65.80;;;;;;5033048;28;20041;-72
2023/12/11 01:03:39;;;;;;;12.88;1.92;;;36.30;64.10;;;;;;5028493;28;20049;-72
2023/12/11 01:06:07;;;;;;;13.07;2.75;;;35.90;63.30;;;;;;5031703;28;20033;-71
2023/12/11 01:08:40;;;;;;;11.25;2.35;;;35.90;64.10;;;;;;5027707;28;20030;-71
2023/12/11 01:11:08;;;;;;;13.10;3.15;;;36.20;65.90;;;;;;5029902;28;20029;-72
2023/12/11 01:13:36;;;;;;;9.90;2.05;;;36.30;63.10;;;;;;5031440;28;20090;-71
2023/12/11 01:16:04;;;;;;;8.80;2.20;;;36.30;63.00;;;;;;5026326;28;20056;-72
2023/12/11 01:18:31;;;;;;;10.65;2.55;;;36.60;64.90;;;;;;5026030;28;20033;-71
2023/12/11 01:20:59;;;;;;;13.68;2.70;;;36.90;64.30;;;;;;5027431;28;20042;-71
2023/12/11 01:23:27;;;;;;;13.75;2.33;;;36.70;62.30;;;;;;5028169;28;20034;-72
2023/12/11 01:25:54;;;;;;;9.38;2.28;;;36.80;63.60;;;;;;5034011;28;20040;-72
2023/12/11 01:28:21;;;;;;;10.45;2.30;;;37.40;64.30;;;;;;5027266;28;20040;-72
2023/12/11 01:30:49;;;;;;;9.57;2.30;;;37.90;61.80;;;;;;5045335;28;20022;-72
2023/12/11 01:33:16;;;;;;;8.38;2.20;;;37.70;62.70;;;;;;5038554;28;20013;-73
2023/12/11 01:35:43;;;;;;;13.20;2.15;;;38.00;61.80;;;;;;5034343;28;20415;-73
2023/12/11 01:38:11;;;;;;;14.38;2.03;;;38.40;59.40;;;;;;5029394;28;20541;-73
2023/12/11 01:40:38;;;;;;;13.52;2.33;;;37.60;58.80;;;;;;5036450;28;20087;-72
2023/12/11 01:43:13;;;;;;;11.98;2.78;;;37.40;59.40;;;;;;5030234;28;20022;-73
2023/12/11 01:45:41;;;;;;;15.38;2.83;;;37.20;61.40;;;;;;5028535;28;20482;-73
2023/12/11 01:48:10;;;;;;;15.45;3.15;;;37.40;60.60;;;;;;5031456;28;20037;-72
2023/12/11 01:50:39;;;;;;;14.52;3.35;;;37.40;60.20;;;;;;5028625;28;20123;-72
2023/12/11 01:53:08;;;;;;;18.20;3.50;;;37.50;61.50;;;;;;5035673;28;20031;-72
2023/12/11 01:55:37;;;;;;;11.82;2.47;;;37.80;61.80;;;;;;5032233;28;20032;-74
2023/12/11 01:58:06;;;;;;;12.50;2.83;;;38.00;61.60;;;;;;5033709;28;20025;-73
2023/12/11 02:00:34;;;;;;;16.40;3.10;;;38.10;60.90;;;;;;5032635;28;20046;-74
2023/12/11 02:03:02;;;;;;;11.32;2.53;;;37.90;60.00;;;;;;5031104;28;20115;-73
2023/12/11 02:05:29;;;;;;;20.58;2.95;;;37.50;60.10;;;;;;5031080;28;20387;-73
2023/12/11 02:07:56;;;;;;;14.25;3.05;;;37.20;59.80;;;;;;5038093;28;20025;-73
2023/12/11 02:10:24;;;;;;;20.45;3.63;;;37.30;59.70;;;;;;5032107;28;20068;-72
2023/12/11 02:12:51;;;;;;;17.17;3.42;;;37.40;60.10;;;;;;5031554;28;20033;-73
2023/12/11 02:15:56;;;;;;;10.30;3.17;;;37.50;58.90;;;;;;5033540;28;20049;-72
2023/12/11 02:18:23;;;;;;;14.20;2.90;;;37.50;59.90;;;;;;5033345;28;20049;-73
2023/12/11 02:20:50;;;;;;;10.32;3.75;;;37.40;57.70;;;;;;5029744;28;20095;-74
2023/12/11 02:23:45;;;;;;;10.63;2.97;;;37.50;59.70;;;;;;5029564;28;20025;-71
2023/12/11 02:26:17;;;;;;;13.80;3.53;;;37.90;58.20;;;;;;5032393;28;20092;-72
2023/12/11 02:28:48;;;;;;;9.77;3.15;;;38.20;59.30;;;;;;5031733;28;20043;-72
2023/12/11 02:31:15;;;;;;;16.65;4.00;;;38.20;59.00;;;;;;5029072;28;20439;-72
2023/12/11 02:33:43;;;;;;;12.77;3.65;;;38.20;58.10;;;;;;5028533;28;20029;-72
2023/12/11 02:36:10;;;;;;;13.65;3.35;;;37.80;57.80;;;;;;5033382;28;20032;-72
2023/12/11 02:38:38;;;;;;;12.45;3.35;;;37.50;57.30;;;;;;5032920;28;20156;-72
2023/12/11 02:41:05;;;;;;;13.15;3.38;;;37.50;58.60;;;;;;5029967;28;20040;-72
2023/12/11 02:43:33;;;;;;;12.13;2.97;;;37.70;60.90;;;;;;5027534;28;20375;-72
2023/12/11 02:46:02;;;;;;;15.77;3.67;;;37.80;61.20;;;;;;5030513;28;20037;-72
2023/12/11 02:48:30;;;;;;;16.05;3.33;;;37.60;61.50;;;;;;5025170;28;20374;-73
2023/12/11 02:50:58;;;;;;;16.70;3.88;;;37.60;61.90;;;;;;5036403;28;20037;-73
2023/12/11 02:53:25;;;;;;;16.90;3.75;;;37.70;62.10;;;;;;5024106;28;20036;-72
2023/12/11 02:55:52;;;;;;;14.30;3.17;;;37.40;60.90;;;;;;5033069;28;20033;-73
2023/12/11 02:58:20;;;;;;;17.80;3.85;;;37.20;62.00;;;;;;5029283;28;20060;-74
2023/12/11 03:00:47;;;;;;;14.60;3.17;;;37.10;62.60;;;;;;5048251;28;20068;-74
2023/12/11 03:03:15;;;;;;;16.33;3.97;;;37.20;63.00;;;;;;5037054;28;20013;-73
2023/12/11 03:05:42;;;;;;;14.45;3.22;;;36.90;63.70;;;;;;5035793;28;20032;-74
2023/12/11 03:08:10;;;;;;;12.23;2.85;;;36.90;63.60;;;;;;5024237;28;20025;-74
2023/12/11 03:10:37;;;;;;;17.90;3.78;;;36.70;63.30;;;;;;5030851;28;20029;-73
2023/12/11 03:13:05;;;;;;;18.10;2.80;;;36.70;64.30;;;;;;5033737;28;20029;-74
2023/12/11 03:15:32;;;;;;;18.33;3.50;;;36.50;64.70;;;;;;5028194;28;20489;-73
2023/12/11 03:18:00;;;;;;;21.38;3.53;;;36.40;64.00;;;;;;5031998;28;20025;-73
2023/12/11 03:20:28;;;;;;;14.75;2.80;;;36.40;65.50;;;;;;5029204;28;20045;-74
2023/12/11 03:22:55;;;;;;;16.40;3.65;;;36.50;65.50;;;;;;5031418;28;20033;-73
2023/12/11 03:25:23;;;;;;;15.70;3.00;;;36.60;65.00;;;;;;5029842;28;20028;-72
2023/12/11 03:27:53;;;;;;;16.80;3.65;;;36.70;64.80;;;;;;5032314;28;20030;-73
2023/12/11 03:30:21;;;;;;;17.52;3.83;;;36.90;65.40;;;;;;5031465;28;20037;-72
2023/12/11 03:32:48;;;;;;;13.15;3.03;;;37.00;64.70;;;;;;5035997;28;20375;-73
2023/12/11 03:35:15;;;;;;;14.65;3.35;;;36.90;64.20;;;;;;5039499;28;20028;-73
2023/12/11 03:37:43;;;;;;;18.40;3.40;;;36.50;65.00;;;;;;5036953;28;20106;-73
2023/12/11 03:40:11;;;;;;;12.13;2.78;;;36.20;66.20;;;;;;5040479;28;21551;-74
2023/12/11 03:42:38;;;;;;;15.20;3.25;;;36.10;66.20;;;;;;5051863;28;20036;-74
2023/12/11 03:45:06;;;;;;;20.95;3.78;;;35.90;66.20;;;;;;5037134;28;20366;-73
2023/12/11 03:47:33;;;;;;;10.68;2.78;;;35.80;66.90;;;;;;5040168;28;20032;-73
2023/12/11 03:50:01;;;;;;;18.58;3.75;;;35.90;67.50;;;;;;5037709;28;20497;-73
2023/12/11 03:52:28;;;;;;;16.33;3.92;;;35.80;66.90;;;;;;5036145;28;20021;-74
2023/12/11 03:54:56;;;;;;;18.80;3.40;;;35.90;67.40;;;;;;5034013;28;20090;-74
2023/12/11 03:57:23;;;;;;;12.90;3.05;;;35.70;66.90;;;;;;5038626;28;20029;-73
2023/12/11 03:59:50;;;;;;;13.98;3.03;;;35.70;67.50;;;;;;5033393;28;20410;-73
2023/12/11 04:02:18;;;;;;;13.00;2.70;;;35.60;68.10;;;;;;5028100;28;20041;-73
2023/12/11 04:04:45;;;;;;;13.23;3.03;;;35.60;67.60;;;;;;5032840;28;20037;-72
2023/12/11 04:07:13;;;;;;;20.27;3.63;;;35.10;67.70;;;;;;5030599;28;20352;-71
2023/12/11 04:09:40;;;;;;;17.27;3.22;;;34.70;69.10;;;;;;5039258;28;20032;-71
2023/12/11 04:12:07;;;;;;;13.50;3.53;;;34.60;69.50;;;;;;5029962;28;20041;-72
2023/12/11 04:14:38;;;;;;;15.98;3.53;;;34.30;69.80;;;;;;5029750;28;20029;-72
2023/12/11 04:17:05;;;;;;;24.48;4.10;;;34.30;70.00;;;;;;5031408;28;20497;-72
2023/12/11 04:19:33;;;;;;;15.05;4.28;;;34.20;70.20;;;;;;5023310;28;20026;-72
2023/12/11 04:22:00;;;;;;;14.55;3.20;;;34.20;70.60;;;;;;5030811;28;20037;-72
2023/12/11 04:24:28;;;;;;;11.60;3.13;;;34.30;71.00;;;;;;5034038;28;20083;-70
2023/12/11 04:26:55;;;;;;;15.00;3.63;;;34.50;70.30;;;;;;5037211;28;20479;-71
2023/12/11 04:29:22;;;;;;;15.70;4.10;;;34.30;70.80;;;;;;5040068;28;20025;-72
2023/12/11 04:31:50;;;;;;;19.70;2.70;;;34.30;70.20;;;;;;5034059;28;20030;-71
2023/12/11 04:34:18;;;;;;;16.27;3.33;;;34.20;71.60;;;;;;5027064;28;20036;-72
2023/12/11 04:36:46;;;;;;;11.57;3.22;;;34.40;70.60;;;;;;5028622;28;20037;-69
2023/12/11 04:39:13;;;;;;;16.17;2.90;;;34.10;71.20;;;;;;5027627;28;20029;-70
2023/12/11 04:41:40;;;;;;;11.60;2.65;;;33.90;71.20;;;;;;5027749;28;20046;-71
2023/12/11 04:44:08;;;;;;;13.35;2.85;;;34.10;71.20;;;;;;5027546;28;20374;-70
2023/12/11 04:46:35;;;;;;;13.45;2.97;;;34.30;71.70;;;;;;5026960;28;20052;-70
2023/12/11 04:49:03;;;;;;;16.48;3.28;;;34.30;71.80;;;;;;5029977;28;20064;-71
2023/12/11 04:51:30;;;;;;;12.50;3.10;;;34.40;71.10;;;;;;5033792;28;20494;-70
2023/12/11 04:53:58;;;;;;;10.68;3.08;;;34.30;70.90;;;;;;5032319;28;20026;-71
2023/12/11 04:56:26;;;;;;;17.77;3.50;;;34.10;71.30;;;;;;5033385;28;20109;-70
2023/12/11 04:58:54;;;;;;;13.45;2.80;;;34.00;71.70;;;;;;5035905;28;20079;-70
2023/12/11 05:01:21;;;;;;;15.15;3.42;;;34.00;71.70;;;;;;5036624;28;20041;-72
2023/12/11 05:03:49;;;;;;;16.77;3.22;;;33.70;72.90;;;;;;5036477;28;20033;-72
2023/12/11 05:06:16;;;;;;;12.10;3.00;;;33.70;72.60;;;;;;5038435;28;20075;-72
2023/12/11 05:08:44;;;;;;;13.70;3.33;;;33.60;72.50;;;;;;5031530;28;20049;-71
2023/12/11 05:11:11;;;;;;;11.38;2.53;;;33.40;73.00;;;;;;5034363;28;20085;-71
2023/12/11 05:13:39;;;;;;;14.25;3.00;;;33.20;73.70;;;;;;5033115;28;20021;-71
2023/12/11 05:16:06;;;;;;;14.07;3.25;;;33.10;74.00;;;;;;5034861;28;20108;-71
2023/12/11 05:18:34;;;;;;;11.40;2.85;;;33.10;73.40;;;;;;5036014;28;20014;-73
2023/12/11 05:21:09;;;;;;;11.18;2.53;;;33.00;73.80;;;;;;5031966;28;20068;-72
2023/12/11 05:23:37;;;;;;;16.70;3.03;;;33.00;73.80;;;;;;5036104;28;20025;-71
2023/12/11 05:26:05;;;;;;;13.38;2.80;;;33.00;74.20;;;;;;5034264;28;20123;-71
2023/12/11 05:28:32;;;;;;;14.82;2.78;;;33.10;73.70;;;;;;5038846;28;20021;-70
2023/12/11 05:31:00;;;;;;;16.45;3.20;;;33.10;73.40;;;;;;5034003;28;20026;-70
2023/12/11 05:33:27;;;;;;;9.85;2.83;;;32.90;73.10;;;;;;5036759;28;20018;-70
2023/12/11 05:35:54;;;;;;;9.32;2.40;;;32.80;73.30;;;;;;5034260;28;20032;-70
2023/12/11 05:38:22;;;;;;;11.57;2.83;;;32.60;74.10;;;;;;5033710;28;20362;-71
2023/12/11 05:40:49;;;;;;;16.40;3.08;;;32.80;73.60;;;;;;5033016;28;20699;-71
2023/12/11 05:43:17;;;;;;;13.50;2.80;;;32.90;73.00;;;;;;5035170;28;20025;-70
2023/12/11 05:45:44;;;;;;;12.35;2.78;;;32.50;73.30;;;;;;5032464;28;20037;-71
2023/12/11 05:48:11;;;;;;;11.27;2.60;;;32.50;74.50;;;;;;5037153;28;20528;-71
2023/12/11 05:50:39;;;;;;;12.80;2.50;;;32.50;74.70;;;;;;5029256;28;20048;-70
2023/12/11 05:53:06;;;;;;;18.88;2.70;;;32.50;75.00;;;;;;5032515;28;20036;-70
2023/12/11 05:55:33;;;;;;;12.82;2.72;;;32.50;73.60;;;;;;5026719;28;20053;-70
2023/12/11 05:58:01;;;;;;;10.35;2.60;;;32.20;74.10;;;;;;5026616;28;20040;-70
2023/12/11 06:00:28;;;;;;;11.98;2.92;;;32.20;74.00;;;;;;5028918;28;20044;-70
2023/12/11 06:02:55;;;;;;;11.65;3.05;;;32.30;73.90;;;;;;5024882;28;20030;-71
2023/12/11 06:05:24;;;;;;;12.30;2.75;;;32.10;74.00;;;;;;5029162;28;20022;-71
2023/12/11 06:07:51;;;;;;;13.35;2.67;;;32.00;74.10;;;;;;5027372;28;20167;-71
2023/12/11 06:10:18;;;;;;;10.68;2.42;;;31.80;74.70;;;;;;5028157;28;20111;-71
2023/12/11 06:12:46;;;;;;;15.05;2.83;;;31.60;75.10;;;;;;5032061;28;20060;-70
2023/12/11 06:15:13;;;;;;;10.30;2.00;;;31.40;75.30;;;;;;5029697;28;20028;-72
2023/12/11 06:17:40;;;;;;;12.23;2.90;;;31.30;76.00;;;;;;5034026;28;20450;-70
2023/12/11 06:20:09;;;;;;;8.35;1.92;;;31.10;75.90;;;;;;5026024;28;20033;-71
2023/12/11 06:22:37;;;;;;;10.93;2.78;;;30.80;76.50;;;;;;5019918;28;20179;-72
2023/12/11 06:25:05;;;;;;;8.98;2.40;;;30.80;77.30;;;;;;5029551;28;20466;-72
2023/12/11 06:27:32;;;;;;;11.30;2.42;;;30.60;78.20;;;;;;5026918;28;20025;-72
2023/12/11 06:29:59;;;;;;;11.00;2.83;;;30.60;78.10;;;;;;5035127;28;20044;-73
2023/12/11 06:32:27;;;;;;;15.93;2.58;;;30.70;79.00;;;;;;5034254;28;20563;-71
2023/12/11 06:34:54;;;;;;;11.13;2.63;;;30.90;78.40;;;;;;5027496;28;20379;-72
2023/12/11 06:37:21;;;;;;;9.57;2.10;;;31.00;77.70;;;;;;5032676;28;20057;-73
2023/12/11 06:39:49;;;;;;;7.80;1.67;;;30.80;77.20;;;;;;5034157;28;20032;-72
2023/12/11 06:42:17;;;;;;;11.05;2.58;;;30.50;77.40;;;;;;5038301;28;20040;-72
2023/12/11 06:44:44;;;;;;;15.65;2.78;;;30.20;78.30;;;;;;5029372;28;20036;-72
2023/12/11 06:47:12;;;;;;;9.23;2.03;;;30.10;78.60;;;;;;5035831;28;21060;-72
2023/12/11 06:49:42;;;;;;;12.05;2.60;;;30.00;79.10;;;;;;5035525;28;20033;-73
2023/12/11 06:52:09;;;;;;;11.82;2.60;;;29.90;79.80;;;;;;5033113;28;20086;-71
2023/12/11 06:54:36;;;;;;;13.90;2.58;;;29.90;79.90;;;;;;5030445;28;21105;-71
2023/12/11 06:57:04;;;;;;;13.10;2.65;;;29.90;80.10;;;;;;5036280;28;20457;-72
2023/12/11 06:59:32;;;;;;;16.23;2.65;;;29.90;80.20;;;;;;5033727;28;20021;-71
2023/12/11 07:01:59;;;;;;;10.02;1.90;;;29.90;80.40;;;;;;5032301;28;20041;-72
2023/12/11 07:04:27;;;;;;;14.35;2.95;;;30.00;80.50;;;;;;5028718;28;20018;-70
2023/12/11 07:06:55;;;;;;;12.65;2.40;;;30.20;80.70;;;;;;5024400;28;20421;-71
2023/12/11 07:09:22;;;;;;;8.20;2.33;;;30.20;79.90;;;;;;5036350;28;20112;-72
2023/12/11 07:11:49;;;;;;;12.48;2.92;;;30.00;80.30;;;;;;5029499;28;20029;-71
2023/12/11 07:14:18;;;;;;;15.93;2.45;;;29.80;80.00;;;;;;5047071;28;20041;-69
2023/12/11 07:16:45;;;;;;;19.20;2.42;;;29.70;80.70;;;;;;5036940;28;20036;-71
2023/12/11 07:19:13;;;;;;;16.00;2.25;;;29.80;80.40;;;;;;5031323;28;20471;-73
2023/12/11 07:21:43;;;;;;;10.88;2.55;;;29.80;80.30;;;;;;5028666;28;20045;-72
2023/12/11 07:24:11;;;;;;;9.23;2.42;;;29.80;80.20;;;;;;5034372;28;20124;-71
2023/12/11 07:26:38;;;;;;;10.75;2.33;;;29.60;79.90;;;;;;5039265;28;20111;-70
2023/12/11 07:29:08;;;;;;;12.88;1.58;;;29.50;80.00;;;;;;5029315;28;20033;-71
2023/12/11 07:31:36;;;;;;;7.15;2.30;;;29.40;80.50;;;;;;5029394;28;20566;-72
2023/12/11 07:34:03;;;;;;;9.52;2.05;;;29.30;80.80;;;;;;5034724;28;20474;-71
2023/12/11 07:36:31;;;;;;;15.02;2.28;;;29.20;80.70;;;;;;5030459;28;20025;-72
2023/12/11 07:38:58;;;;;;;8.68;1.67;;;29.00;81.10;;;;;;5028796;28;20503;-72
2023/12/11 07:41:25;;;;;;;10.55;1.77;;;28.90;82.20;;;;;;5023472;28;20463;-71
2023/12/11 07:43:53;;;;;;;9.15;2.15;;;28.80;82.60;;;;;;5028810;28;20034;-71
2023/12/11 07:46:24;;;;;;;11.45;1.58;;;28.70;82.80;;;;;;5034784;28;20052;-72
2023/12/11 07:48:51;;;;;;;6.45;1.67;;;28.70;82.70;;;;;;5027105;28;20030;-70
2023/12/11 07:51:20;;;;;;;6.63;1.60;;;28.50;83.80;;;;;;5047744;28;20045;-73
2023/12/11 07:53:48;;;;;;;10.55;2.00;;;28.40;84.00;;;;;;5033553;28;20029;-71
2023/12/11 07:56:23;;;;;;;9.18;1.67;;;28.30;84.60;;;;;;5030499;28;20156;-72
2023/12/11 07:58:53;;;;;;;11.23;2.10;;;28.30;84.40;;;;;;5031440;28;20366;-71
2023/12/11 08:01:20;;;;;;;13.90;1.90;;;28.10;85.20;;;;;;5035033;28;20029;-71
2023/12/11 08:03:48;;;;;;;8.50;2.10;;;28.00;85.90;;;;;;5029571;28;20043;-71
2023/12/11 08:06:16;;;;;;;10.68;2.15;;;27.90;86.70;;;;;;5033520;28;20045;-71
2023/12/11 08:08:43;;;;;;;10.48;1.75;;;27.70;87.20;;;;;;5027869;28;20040;-72
2023/12/11 08:11:21;;;;;;;18.52;2.60;;;27.70;87.70;;;;;;5029138;28;20482;-71
2023/12/11 08:13:49;;;;;;;12.25;1.92;;;27.60;88.70;;;;;;5034813;28;20471;-71
2023/12/11 08:16:17;;;;;;;8.60;1.92;;;27.60;89.10;;;;;;5030287;28;20022;-72
2023/12/11 08:18:44;;;;;;;9.85;1.73;;;27.60;89.20;;;;;;5035795;28;20065;-72
2023/12/11 08:21:18;;;;;;;13.30;2.05;;;27.60;89.80;;;;;;5032917;28;20383;-71
2023/12/11 08:23:48;;;;;;;7.65;1.48;;;27.50;90.10;;;;;;5031091;28;20032;-71
2023/12/11 08:26:20;;;;;;;12.75;2.50;;;27.40;90.10;;;;;;5035185;28;20544;-71
2023/12/11 08:28:49;;;;;;;11.45;2.92;;;27.30;90.30;;;;;;5034361;28;20121;-71
2023/12/11 08:31:16;;;;;;;13.02;2.53;;;27.20;90.50;;;;;;5035617;28;20030;-70
2023/12/11 08:33:44;;;;;;;14.10;2.95;;;27.20;90.90;;;;;;5028910;28;20049;-71
2023/12/11 08:36:12;;;;;;;12.45;3.03;;;27.10;91.10;;;;;;5033370;28;20018;-71
2023/12/11 08:38:40;;;;;;;15.15;2.70;;;27.00;91.50;;;;;;5040381;28;20475;-71
2023/12/11 08:41:07;;;;;;;12.07;2.25;;;27.00;91.70;;;;;;5036397;28;20044;-70
2023/12/11 08:43:35;;;;;;;10.18;3.10;;;26.80;92.10;;;;;;5025887;28;20041;-71
2023/12/11 08:46:02;;;;;;;13.05;2.97;;;26.70;92.40;;;;;;5032834;28;20037;-71
2023/12/11 08:48:29;;;;;;;10.50;2.75;;;26.70;92.60;;;;;;5036079;28;20026;-71
2023/12/11 08:50:57;;;;;;;16.65;3.10;;;26.50;93.00;;;;;;5034824;28;20055;-71
2023/12/11 08:53:25;;;;;;;12.63;2.65;;;26.60;93.10;;;;;;5033449;28;20126;-72
2023/12/11 08:55:54;;;;;;;11.27;3.35;;;26.50;93.30;;;;;;5038913;28;20079;-72
2023/12/11 08:58:21;;;;;;;11.68;2.97;;;26.50;93.50;;;;;;5035873;28;20731;-71
2023/12/11 09:00:48;;;;;;;13.10;2.63;;;26.50;93.50;;;;;;5037993;28;20033;-70
2023/12/11 09:03:16;;;;;;;17.33;3.72;;;26.40;93.80;;;;;;5037052;28;20021;-71
2023/12/11 09:05:43;;;;;;;12.52;3.22;;;26.50;93.80;;;;;;5035907;28;20032;-71
2023/12/11 09:08:11;;;;;;;10.13;3.78;;;26.50;93.70;;;;;;5037658;28;20032;-71
2023/12/11 09:10:38;;;;;;;15.20;4.53;;;26.50;93.80;;;;;;5034397;28;20036;-71
2023/12/11 09:13:06;;;;;;;14.70;4.18;;;26.40;94.10;;;;;;5030172;28;20096;-71
2023/12/11 09:15:33;;;;;;;20.48;4.18;;;26.30;94.20;;;;;;5041568;28;20025;-70
2023/12/11 09:18:00;;;;;;;9.85;3.80;;;26.40;94.10;;;;;;5044061;28;20025;-70
2023/12/11 09:20:28;;;;;;;9.90;3.20;;;26.40;94.30;;;;;;5035718;28;20075;-70
2023/12/11 09:22:56;;;;;;;13.43;3.67;;;26.30;94.00;;;;;;5029589;28;20474;-71
2023/12/11 09:25:23;;;;;;;16.42;4.25;;;26.10;94.20;;;;;;5026616;28;20029;-70
2023/12/11 09:27:50;;;;;;;12.38;3.38;;;26.20;94.10;;;;;;5027851;28;20056;-71
2023/12/11 09:30:18;;;;;;;15.52;3.70;;;26.20;94.20;;;;;;5026082;28;20075;-72
2023/12/11 09:32:46;;;;;;;12.00;3.15;;;26.20;94.20;;;;;;5025591;28;20022;-72
2023/12/11 09:35:13;;;;;;;11.88;3.22;;;26.10;94.20;;;;;;5027488;28;20044;-70
2023/12/11 09:37:41;;;;;;;10.18;2.92;;;26.00;94.30;;;;;;5027574;28;20107;-70
2023/12/11 09:40:10;;;;;;;13.02;2.80;;;25.80;94.60;;;;;;5027044;28;20021;-70
2023/12/11 09:42:43;;;;;;;12.48;2.78;;;25.90;94.80;;;;;;5032673;28;20049;-70
2023/12/11 09:45:17;;;;;;;11.77;2.67;;;25.90;94.60;;;;;;5034887;28;20112;-70
2023/12/11 09:47:49;;;;;;;11.50;3.28;;;26.00;94.60;;;;;;5022084;28;20057;-71
2023/12/11 09:50:18;;;;;;;19.58;3.05;;;26.00;94.70;;;;;;5038173;28;20126;-71
2023/12/11 09:52:45;;;;;;;11.07;2.50;;;25.90;94.90;;;;;;5032787;28;20467;-71
2023/12/11 09:55:13;;;;;;;8.70;2.25;;;25.80;95.10;;;;;;5031498;28;20028;-71
2023/12/11 09:57:45;;;;;;;12.40;2.90;;;25.80;95.20;;;;;;5030941;28;20034;-71
2023/12/11 10:00:13;;;;;;;14.45;3.03;;;26.00;94.80;;;;;;5031524;28;20030;-71
2023/12/11 10:02:42;;;;;;;9.35;2.55;;;26.20;94.60;;;;;;5036515;28;20132;-73
2023/12/11 10:05:11;;;;;;;8.88;2.42;;;26.20;94.50;;;;;;5035934;28;20083;-71
2023/12/11 10:07:42;;;;;;;10.75;2.80;;;26.10;94.60;;;;;;5024332;28;20033;-71
2023/12/11 10:10:30;;;;;;;14.98;3.15;;;26.30;94.50;;;;;;5033981;28;20030;-70
2023/12/11 10:13:07;;;;;;;11.30;2.40;;;26.30;94.70;;;;;;5028361;28;20030;-72
2023/12/11 10:15:36;;;;;;;12.45;2.33;;;26.20;94.60;;;;;;5035980;28;20810;-72
2023/12/11 10:18:11;;;;;;;23.20;3.78;;;26.10;94.80;;;;;;5036018;28;20029;-71
2023/12/11 10:20:41;;;;;;;15.60;3.08;;;26.00;95.00;;;;;;5035960;28;20120;-73
2023/12/11 10:23:17;;;;;;;15.55;2.50;;;26.00;95.20;;;;;;5036527;28;20267;-70
2023/12/11 10:25:46;;;;;;;21.70;2.58;;;25.90;95.40;;;;;;5028425;28;20124;-71
2023/12/11 10:28:16;;;;;;;11.18;3.10;;;25.90;95.40;;;;;;5031449;28;20022;-71
2023/12/11 10:30:55;;;;;;;15.32;4.45;;;25.90;95.50;;;;;;5027435;28;20393;-70
2023/12/11 10:33:25;;;;;;;10.45;2.83;;;26.00;95.20;;;;;;5031932;28;20036;-70
2023/12/11 10:35:53;;;;;;;12.90;2.30;;;25.90;95.50;;;;;;5031877;28;20142;-71
2023/12/11 10:38:24;;;;;;;13.70;2.55;;;25.90;95.70;;;;;;5036806;28;20029;-71
2023/12/11 10:40:53;;;;;;;13.23;3.28;;;25.90;95.90;;;;;;5035469;28;20082;-70
2023/12/11 10:43:20;;;;;;;14.10;2.40;;;26.10;95.70;;;;;;5026550;28;20092;-72
2023/12/11 10:45:48;;;;;;;10.05;2.45;;;26.10;95.70;;;;;;5031389;28;20025;-72
2023/12/11 10:48:16;;;;;;;11.98;2.47;;;26.00;96.20;;;;;;5028988;28;20022;-71
2023/12/11 10:50:43;;;;;;;12.57;2.45;;;26.10;96.20;;;;;;5026239;28;20067;-71
2023/12/11 10:53:15;;;;;;;8.77;2.15;;;26.10;96.20;;;;;;5021872;28;20387;-71
2023/12/11 10:55:43;;;;;;;20.83;3.00;;;26.00;96.40;;;;;;5022840;28;20029;-71
2023/12/11 10:58:10;;;;;;;18.63;2.75;;;26.20;96.60;;;;;;5024675;28;20049;-71
2023/12/11 11:00:40;;;;;;;12.45;2.10;;;26.10;96.70;;;;;;5025062;28;20038;-71
2023/12/11 11:03:10;;;;;;;11.98;2.90;;;26.20;96.90;;;;;;5026281;28;20029;-71
2023/12/11 11:05:38;;;;;;;18.13;2.70;;;26.00;97.00;;;;;;5029128;28;20038;-72
2023/12/11 11:08:19;;;;;;;10.77;2.00;;;26.10;97.20;;;;;;5023119;28;20428;-71
2023/12/11 11:11:24;;;;;;;14.20;2.40;;;26.20;97.10;;;;;;5026168;28;20026;-71
2023/12/11 11:14:07;;;;;;;16.33;2.75;;;26.10;97.30;;;;;;5028908;28;20064;-71
2023/12/11 11:16:53;;;;;;;11.20;2.47;;;26.20;97.30;;;;;;5026083;28;20029;-71
2023/12/11 11:19:21;;;;;;;12.65;2.17;;;26.00;97.40;;;;;;5027615;28;20095;-71
2023/12/11 11:22:03;;;;;;;18.60;2.42;;;25.90;97.60;;;;;;5030024;28;20036;-71
2023/12/11 11:24:34;;;;;;;17.52;2.33;;;25.80;97.70;;;;;;5022428;28;20065;-70
2023/12/11 11:27:04;;;;;;;18.58;3.08;;;25.60;97.90;;;;;;5034798;28;20029;-70
2023/12/11 11:29:44;;;;;;;15.07;2.72;;;25.60;98.10;;;;;;5033405;28;20028;-71
2023/12/11 11:32:12;;;;;;;11.55;2.58;;;25.60;98.10;;;;;;5047461;28;20022;-71
2023/12/11 11:34:43;;;;;;;11.45;2.13;;;25.40;98.30;;;;;;5031151;28;20048;-71
2023/12/11 11:37:17;;;;;;;11.50;2.38;;;25.30;98.60;;;;;;5032450;28;20427;-71
2023/12/11 11:40:04;;;;;;;16.02;2.83;;;25.30;98.70;;;;;;5033441;28;20055;-71
2023/12/11 11:42:33;;;;;;;8.18;1.85;;;25.40;98.60;;;;;;5029924;28;20087;-71
2023/12/11 11:45:03;;;;;;;10.73;2.40;;;25.50;98.50;;;;;;5024667;28;20160;-71
2023/12/11 11:47:31;;;;;;;11.60;2.40;;;25.40;98.50;;;;;;5032744;28;20048;-70
2023/12/11 11:50:07;;;;;;;17.58;2.47;;;25.40;98.70;;;;;;5033657;28;20083;-72
2023/12/11 11:52:45;;;;;;;13.57;2.53;;;25.30;98.90;;;;;;5032565;28;20033;-70
2023/12/11 11:55:29;;;;;;;18.67;3.13;;;25.30;99.00;;;;;;5036346;28;20498;-70
2023/12/11 11:57:57;;;;;;;11.63;1.95;;;25.20;99.00;;;;;;5037193;28;20108;-70
2023/12/11 12:00:28;;;;;;;14.77;2.58;;;25.20;99.30;;;;;;5032449;28;20132;-71
2023/12/11 12:03:04;;;;;;;18.55;3.00;;;25.20;99.30;;;;;;5039963;28;20045;-71
2023/12/11 12:05:32;;;;;;;16.08;2.67;;;25.20;99.40;;;;;;5032553;28;20466;-71
2023/12/11 12:08:02;;;;;;;16.00;2.85;;;25.00;99.50;;;;;;5040212;28;20104;-71
2023/12/11 12:10:30;;;;;;;21.77;2.70;;;25.00;99.80;;;;;;5034188;28;20063;-71
2023/12/11 12:12:58;;;;;;;8.25;2.10;;;25.30;99.50;;;;;;5033380;28;20037;-72
2023/12/11 12:15:26;;;;;;;13.88;3.08;;;25.20;99.60;;;;;;5039934;28;20447;-70
2023/12/11 12:17:54;;;;;;;11.32;2.30;;;25.40;99.40;;;;;;5034795;28;20072;-72
2023/12/11 12:20:21;;;;;;;15.18;2.53;;;25.40;99.40;;;;;;5032306;28;20022;-72
2023/12/11 12:22:57;;;;;;;9.63;2.13;;;25.60;99.10;;;;;;5030941;28;20504;-71
2023/12/11 12:25:26;;;;;;;17.30;2.17;;;25.60;99.00;;;;;;5027461;28;20022;-71
2023/12/11 12:28:00;;;;;;;13.85;2.47;;;25.60;99.00;;;;;;5032547;28;20508;-68
2023/12/11 12:30:28;;;;;;;15.60;2.78;;;25.60;99.20;;;;;;5030273;28;20467;-71
2023/12/11 12:32:56;;;;;;;15.40;2.55;;;25.40;99.50;;;;;;5031158;28;20030;-71
2023/12/11 12:35:24;;;;;;;13.25;2.72;;;25.70;99.20;;;;;;5028790;28;20079;-71
2023/12/11 12:37:52;;;;;;;13.68;2.65;;;25.60;99.10;;;;;;5026268;28;20520;-71
2023/12/11 12:40:20;;;;;;;23.05;2.80;;;25.60;99.30;;;;;;5025224;28;20030;-71
2023/12/11 12:42:47;;;;;;;14.27;2.25;;;25.40;99.60;;;;;;5028002;28;20363;-71
2023/12/11 12:45:35;;;;;;;21.95;2.90;;;25.50;99.50;;;;;;5030146;28;20052;-71
2023/12/11 12:48:02;;;;;;;20.48;2.85;;;25.70;99.20;;;;;;5024981;28;20455;-71